sensor_id;sensor_type;location;lat;lon;timestamp;P1;durP1;ratioP1;P2;durP2;ratioP2
21036;SDS011;10677;50.942;4.028;2023-01-19T00:00:09;18.75;;;9.80;;
21036;SDS011;10677;50.942;4.028;2023-01-19T00:02:36;13.77;;;8.98;;
21036;SDS011;10677;50.942;4.028;2023-01-19T00:05:02;17.30;;;8.60;;
21036;SDS011;10677;50.942;4.028;2023-01-19T00:07:32;15.65;;;8.60;;
21036;SDS011;10677;50.942;4.028;2023-01-19T00:09:57;17.67;;;8.98;;
21036;SDS011;10677;50.942;4.028;2023-01-19T00:12:24;15.13;;;9.23;;
21036;SDS011;10677;50.942;4.028;2023-01-19T00:14:50;13.60;;;8.43;;
21036;SDS011;10677;50.942;4.028;2023-01-19T00:17:15;15.65;;;8.00;;
21036;SDS011;10677;50.942;4.028;2023-01-19T00:19:42;16.83;;;8.65;;
21036;SDS011;10677;50.942;4.028;2023-01-19T00:22:09;13.50;;;8.77;;
21036;SDS011;10677;50.942;4.028;2023-01-19T00:24:35;17.42;;;8.77;;
21036;SDS011;10677;50.942;4.028;2023-01-19T00:27:00;17.92;;;8.85;;
21036;SDS011;10677;50.942;4.028;2023-01-19T00:29:28;15.93;;;9.48;;
21036;SDS011;10677;50.942;4.028;2023-01-19T00:32:01;18.52;;;8.90;;
21036;SDS011;10677;50.942;4.028;2023-01-19T00:34:28;18.60;;;9.95;;
21036;SDS011;10677;50.942;4.028;2023-01-19T00:37:10;16.73;;;8.90;;
21036;SDS011;10677;50.942;4.028;2023-01-19T00:39:36;16.38;;;9.20;;
21036;SDS011;10677;50.942;4.028;2023-01-19T00:42:01;19.35;;;9.82;;
21036;SDS011;10677;50.942;4.028;2023-01-19T00:44:46;16.35;;;9.55;;
21036;SDS011;10677;50.942;4.028;2023-01-19T00:47:11;17.10;;;8.88;;
21036;SDS011;10677;50.942;4.028;2023-01-19T00:49:38;15.55;;;9.40;;
21036;SDS011;10677;50.942;4.028;2023-01-19T00:52:04;18.15;;;9.35;;
21036;SDS011;10677;50.942;4.028;2023-01-19T00:54:33;20.17;;;10.18;;
21036;SDS011;10677;50.942;4.028;2023-01-19T00:56:58;16.27;;;9.57;;
21036;SDS011;10677;50.942;4.028;2023-01-19T00:59:24;18.52;;;8.93;;
21036;SDS011;10677;50.942;4.028;2023-01-19T01:01:50;18.27;;;9.20;;
21036;SDS011;10677;50.942;4.028;2023-01-19T01:04:15;22.10;;;9.98;;
21036;SDS011;10677;50.942;4.028;2023-01-19T01:06:41;18.63;;;9.02;;
21036;SDS011;10677;50.942;4.028;2023-01-19T01:09:06;18.83;;;9.50;;
21036;SDS011;10677;50.942;4.028;2023-01-19T01:11:39;16.83;;;8.85;;
21036;SDS011;10677;50.942;4.028;2023-01-19T01:14:06;18.92;;;8.40;;
21036;SDS011;10677;50.942;4.028;2023-01-19T01:16:33;14.32;;;7.97;;
21036;SDS011;10677;50.942;4.028;2023-01-19T01:18:59;17.75;;;8.00;;
21036;SDS011;10677;50.942;4.028;2023-01-19T01:21:24;15.93;;;8.30;;
21036;SDS011;10677;50.942;4.028;2023-01-19T01:23:50;15.38;;;8.40;;
21036;SDS011;10677;50.942;4.028;2023-01-19T01:26:19;15.38;;;7.60;;
21036;SDS011;10677;50.942;4.028;2023-01-19T01:28:45;24.77;;;8.15;;
21036;SDS011;10677;50.942;4.028;2023-01-19T01:31:11;18.25;;;8.55;;
21036;SDS011;10677;50.942;4.028;2023-01-19T01:33:36;16.80;;;8.20;;
21036;SDS011;10677;50.942;4.028;2023-01-19T01:36:02;13.98;;;8.93;;
21036;SDS011;10677;50.942;4.028;2023-01-19T01:38:28;18.42;;;7.82;;
21036;SDS011;10677;50.942;4.028;2023-01-19T01:40:54;15.02;;;8.02;;
21036;SDS011;10677;50.942;4.028;2023-01-19T01:43:19;18.67;;;8.90;;
21036;SDS011;10677;50.942;4.028;2023-01-19T01:45:45;15.32;;;8.27;;
21036;SDS011;10677;50.942;4.028;2023-01-19T01:50:40;23.23;;;8.90;;
21036;SDS011;10677;50.942;4.028;2023-01-19T01:53:34;16.98;;;8.60;;
21036;SDS011;10677;50.942;4.028;2023-01-19T01:56:03;17.98;;;8.40;;
21036;SDS011;10677;50.942;4.028;2023-01-19T01:58:34;22.27;;;9.02;;
21036;SDS011;10677;50.942;4.028;2023-01-19T02:01:02;15.68;;;8.88;;
21036;SDS011;10677;50.942;4.028;2023-01-19T02:03:47;16.55;;;8.38;;
21036;SDS011;10677;50.942;4.028;2023-01-19T02:06:14;17.00;;;8.88;;
21036;SDS011;10677;50.942;4.028;2023-01-19T02:08:51;17.15;;;8.43;;
21036;SDS011;10677;50.942;4.028;2023-01-19T02:11:48;19.98;;;9.63;;
21036;SDS011;10677;50.942;4.028;2023-01-19T02:14:34;19.83;;;8.73;;
21036;SDS011;10677;50.942;4.028;2023-01-19T02:17:03;18.85;;;9.88;;
21036;SDS011;10677;50.942;4.028;2023-01-19T02:19:31;22.27;;;9.68;;
21036;SDS011;10677;50.942;4.028;2023-01-19T02:24:59;15.45;;;8.75;;
21036;SDS011;10677;50.942;4.028;2023-01-19T02:27:27;21.08;;;8.85;;
21036;SDS011;10677;50.942;4.028;2023-01-19T02:29:56;19.83;;;8.60;;
21036;SDS011;10677;50.942;4.028;2023-01-19T02:32:23;19.25;;;9.55;;
21036;SDS011;10677;50.942;4.028;2023-01-19T02:34:49;28.05;;;10.30;;
21036;SDS011;10677;50.942;4.028;2023-01-19T02:37:15;21.13;;;10.20;;
21036;SDS011;10677;50.942;4.028;2023-01-19T02:39:52;25.27;;;9.80;;
21036;SDS011;10677;50.942;4.028;2023-01-19T02:44:58;18.33;;;9.50;;
21036;SDS011;10677;50.942;4.028;2023-01-19T02:47:36;19.83;;;9.13;;
21036;SDS011;10677;50.942;4.028;2023-01-19T02:59:05;24.10;;;9.80;;
21036;SDS011;10677;50.942;4.028;2023-01-19T03:06:56;16.63;;;8.98;;
21036;SDS011;10677;50.942;4.028;2023-01-19T03:14:54;15.95;;;8.98;;
21036;SDS011;10677;50.942;4.028;2023-01-19T03:17:25;14.32;;;8.02;;
21036;SDS011;10677;50.942;4.028;2023-01-19T03:19:53;16.15;;;8.07;;
21036;SDS011;10677;50.942;4.028;2023-01-19T03:22:24;18.17;;;7.72;;
21036;SDS011;10677;50.942;4.028;2023-01-19T03:24:53;20.08;;;8.05;;
21036;SDS011;10677;50.942;4.028;2023-01-19T03:27:27;17.60;;;8.80;;
21036;SDS011;10677;50.942;4.028;2023-01-19T03:29:58;20.65;;;8.10;;
21036;SDS011;10677;50.942;4.028;2023-01-19T03:32:31;18.60;;;7.97;;
21036;SDS011;10677;50.942;4.028;2023-01-19T03:35:01;18.48;;;8.10;;
21036;SDS011;10677;50.942;4.028;2023-01-19T03:37:30;19.45;;;8.65;;
21036;SDS011;10677;50.942;4.028;2023-01-19T03:39:58;17.85;;;7.97;;
21036;SDS011;10677;50.942;4.028;2023-01-19T03:42:24;17.05;;;7.47;;
21036;SDS011;10677;50.942;4.028;2023-01-19T03:44:52;17.33;;;7.90;;
21036;SDS011;10677;50.942;4.028;2023-01-19T03:47:20;20.42;;;8.57;;
21036;SDS011;10677;50.942;4.028;2023-01-19T03:49:47;19.73;;;8.52;;
21036;SDS011;10677;50.942;4.028;2023-01-19T03:52:15;18.55;;;8.20;;
21036;SDS011;10677;50.942;4.028;2023-01-19T03:54:41;19.42;;;8.35;;
21036;SDS011;10677;50.942;4.028;2023-01-19T03:57:07;19.48;;;8.57;;
21036;SDS011;10677;50.942;4.028;2023-01-19T03:59:34;17.77;;;8.23;;
21036;SDS011;10677;50.942;4.028;2023-01-19T04:01:59;26.50;;;9.88;;
21036;SDS011;10677;50.942;4.028;2023-01-19T04:04:27;19.50;;;8.63;;
21036;SDS011;10677;50.942;4.028;2023-01-19T04:06:52;16.80;;;8.82;;
21036;SDS011;10677;50.942;4.028;2023-01-19T04:09:18;17.58;;;9.20;;
21036;SDS011;10677;50.942;4.028;2023-01-19T04:11:43;18.67;;;8.52;;
21036;SDS011;10677;50.942;4.028;2023-01-19T04:14:09;18.35;;;9.18;;
21036;SDS011;10677;50.942;4.028;2023-01-19T04:16:35;19.88;;;9.07;;
21036;SDS011;10677;50.942;4.028;2023-01-19T04:19:00;22.65;;;9.85;;
21036;SDS011;10677;50.942;4.028;2023-01-19T04:21:26;21.67;;;10.15;;
21036;SDS011;10677;50.942;4.028;2023-01-19T04:23:51;18.85;;;10.00;;
21036;SDS011;10677;50.942;4.028;2023-01-19T04:26:18;25.13;;;10.68;;
21036;SDS011;10677;50.942;4.028;2023-01-19T04:28:43;22.48;;;11.07;;
21036;SDS011;10677;50.942;4.028;2023-01-19T04:31:09;25.52;;;10.20;;
21036;SDS011;10677;50.942;4.028;2023-01-19T04:33:35;26.05;;;11.25;;
21036;SDS011;10677;50.942;4.028;2023-01-19T04:36:00;20.35;;;11.45;;
21036;SDS011;10677;50.942;4.028;2023-01-19T04:38:26;26.52;;;13.20;;
21036;SDS011;10677;50.942;4.028;2023-01-19T04:40:52;26.20;;;13.70;;
21036;SDS011;10677;50.942;4.028;2023-01-19T04:43:18;25.70;;;13.25;;
21036;SDS011;10677;50.942;4.028;2023-01-19T04:45:45;27.05;;;13.13;;
21036;SDS011;10677;50.942;4.028;2023-01-19T04:48:12;26.77;;;12.88;;
21036;SDS011;10677;50.942;4.028;2023-01-19T04:50:38;25.83;;;13.13;;
21036;SDS011;10677;50.942;4.028;2023-01-19T04:53:05;26.73;;;13.98;;
21036;SDS011;10677;50.942;4.028;2023-01-19T04:55:31;25.95;;;13.77;;
21036;SDS011;10677;50.942;4.028;2023-01-19T04:57:57;25.48;;;13.20;;
21036;SDS011;10677;50.942;4.028;2023-01-19T05:00:23;31.10;;;13.38;;
21036;SDS011;10677;50.942;4.028;2023-01-19T05:02:50;27.85;;;13.50;;
21036;SDS011;10677;50.942;4.028;2023-01-19T05:08:39;31.92;;;14.68;;
21036;SDS011;10677;50.942;4.028;2023-01-19T05:11:04;35.90;;;14.57;;
21036;SDS011;10677;50.942;4.028;2023-01-19T05:13:30;27.13;;;14.70;;
21036;SDS011;10677;50.942;4.028;2023-01-19T05:15:57;32.47;;;15.77;;
21036;SDS011;10677;50.942;4.028;2023-01-19T05:18:23;27.45;;;15.15;;
21036;SDS011;10677;50.942;4.028;2023-01-19T05:20:48;32.40;;;14.10;;
21036;SDS011;10677;50.942;4.028;2023-01-19T05:23:14;30.75;;;15.10;;
21036;SDS011;10677;50.942;4.028;2023-01-19T05:25:41;30.70;;;15.13;;
21036;SDS011;10677;50.942;4.028;2023-01-19T05:28:07;26.48;;;15.40;;
21036;SDS011;10677;50.942;4.028;2023-01-19T05:30:32;36.28;;;15.35;;
21036;SDS011;10677;50.942;4.028;2023-01-19T05:32:58;25.98;;;13.82;;
21036;SDS011;10677;50.942;4.028;2023-01-19T05:35:24;28.70;;;14.38;;
21036;SDS011;10677;50.942;4.028;2023-01-19T05:37:52;25.70;;;14.77;;
21036;SDS011;10677;50.942;4.028;2023-01-19T05:40:18;37.42;;;15.57;;
21036;SDS011;10677;50.942;4.028;2023-01-19T05:42:44;31.77;;;16.02;;
21036;SDS011;10677;50.942;4.028;2023-01-19T05:45:09;30.25;;;15.82;;
21036;SDS011;10677;50.942;4.028;2023-01-19T05:47:36;37.83;;;16.45;;
21036;SDS011;10677;50.942;4.028;2023-01-19T05:50:02;35.35;;;17.05;;
21036;SDS011;10677;50.942;4.028;2023-01-19T05:52:28;39.83;;;16.13;;
21036;SDS011;10677;50.942;4.028;2023-01-19T05:54:54;35.17;;;16.70;;
21036;SDS011;10677;50.942;4.028;2023-01-19T05:57:20;34.55;;;17.35;;
21036;SDS011;10677;50.942;4.028;2023-01-19T05:59:45;31.83;;;16.10;;
21036;SDS011;10677;50.942;4.028;2023-01-19T06:02:11;33.17;;;16.20;;
21036;SDS011;10677;50.942;4.028;2023-01-19T06:04:37;32.67;;;16.30;;
21036;SDS011;10677;50.942;4.028;2023-01-19T06:07:03;33.72;;;15.75;;
21036;SDS011;10677;50.942;4.028;2023-01-19T06:09:31;39.67;;;16.48;;
21036;SDS011;10677;50.942;4.028;2023-01-19T06:11:57;34.92;;;15.77;;
21036;SDS011;10677;50.942;4.028;2023-01-19T06:14:23;36.97;;;16.60;;
21036;SDS011;10677;50.942;4.028;2023-01-19T06:16:50;34.83;;;16.70;;
21036;SDS011;10677;50.942;4.028;2023-01-19T06:19:16;30.48;;;16.20;;
21036;SDS011;10677;50.942;4.028;2023-01-19T06:21:41;40.55;;;17.83;;
21036;SDS011;10677;50.942;4.028;2023-01-19T06:24:13;37.33;;;16.60;;
21036;SDS011;10677;50.942;4.028;2023-01-19T06:26:40;39.67;;;17.08;;
21036;SDS011;10677;50.942;4.028;2023-01-19T06:29:09;39.83;;;16.40;;
21036;SDS011;10677;50.942;4.028;2023-01-19T06:31:36;39.47;;;16.60;;
21036;SDS011;10677;50.942;4.028;2023-01-19T06:34:02;39.92;;;17.33;;
21036;SDS011;10677;50.942;4.028;2023-01-19T06:36:28;34.25;;;16.80;;
21036;SDS011;10677;50.942;4.028;2023-01-19T06:38:53;32.15;;;14.85;;
21036;SDS011;10677;50.942;4.028;2023-01-19T06:44:19;35.67;;;15.27;;
21036;SDS011;10677;50.942;4.028;2023-01-19T06:46:45;34.40;;;15.88;;
21036;SDS011;10677;50.942;4.028;2023-01-19T06:49:12;30.23;;;15.10;;
21036;SDS011;10677;50.942;4.028;2023-01-19T06:51:38;32.40;;;15.52;;
21036;SDS011;10677;50.942;4.028;2023-01-19T06:54:04;27.98;;;15.57;;
21036;SDS011;10677;50.942;4.028;2023-01-19T06:56:29;36.83;;;17.25;;
21036;SDS011;10677;50.942;4.028;2023-01-19T06:58:55;34.13;;;16.10;;
21036;SDS011;10677;50.942;4.028;2023-01-19T07:01:21;29.77;;;13.77;;
21036;SDS011;10677;50.942;4.028;2023-01-19T07:03:48;30.75;;;14.25;;
21036;SDS011;10677;50.942;4.028;2023-01-19T07:06:14;31.30;;;14.98;;
21036;SDS011;10677;50.942;4.028;2023-01-19T07:08:40;38.75;;;14.00;;
21036;SDS011;10677;50.942;4.028;2023-01-19T07:11:06;33.13;;;14.40;;
21036;SDS011;10677;50.942;4.028;2023-01-19T07:13:34;38.78;;;14.65;;
21036;SDS011;10677;50.942;4.028;2023-01-19T07:18:47;33.28;;;14.30;;
21036;SDS011;10677;50.942;4.028;2023-01-19T07:21:14;30.52;;;14.75;;
21036;SDS011;10677;50.942;4.028;2023-01-19T07:23:40;29.30;;;13.27;;
21036;SDS011;10677;50.942;4.028;2023-01-19T07:26:09;35.67;;;15.45;;
21036;SDS011;10677;50.942;4.028;2023-01-19T07:28:34;34.67;;;13.77;;
21036;SDS011;10677;50.942;4.028;2023-01-19T07:31:03;34.55;;;13.80;;
21036;SDS011;10677;50.942;4.028;2023-01-19T07:33:29;28.65;;;13.65;;
21036;SDS011;10677;50.942;4.028;2023-01-19T07:35:55;35.15;;;15.02;;
21036;SDS011;10677;50.942;4.028;2023-01-19T08:01:35;27.35;;;13.60;;
21036;SDS011;10677;50.942;4.028;2023-01-19T08:04:03;35.70;;;14.77;;
21036;SDS011;10677;50.942;4.028;2023-01-19T08:06:32;34.00;;;15.43;;
21036;SDS011;10677;50.942;4.028;2023-01-19T08:09:06;37.65;;;14.85;;
21036;SDS011;10677;50.942;4.028;2023-01-19T08:11:34;34.58;;;14.40;;
21036;SDS011;10677;50.942;4.028;2023-01-19T08:14:03;29.83;;;15.63;;
21036;SDS011;10677;50.942;4.028;2023-01-19T08:16:30;37.35;;;14.45;;
21036;SDS011;10677;50.942;4.028;2023-01-19T08:18:56;27.83;;;13.23;;
21036;SDS011;10677;50.942;4.028;2023-01-19T08:21:25;29.80;;;12.95;;
21036;SDS011;10677;50.942;4.028;2023-01-19T08:23:57;24.48;;;12.55;;
21036;SDS011;10677;50.942;4.028;2023-01-19T08:26:27;28.15;;;12.50;;
21036;SDS011;10677;50.942;4.028;2023-01-19T08:28:55;29.77;;;13.00;;
21036;SDS011;10677;50.942;4.028;2023-01-19T08:34:24;26.58;;;12.95;;
21036;SDS011;10677;50.942;4.028;2023-01-19T08:36:50;26.20;;;12.05;;
21036;SDS011;10677;50.942;4.028;2023-01-19T08:39:16;23.13;;;12.30;;
21036;SDS011;10677;50.942;4.028;2023-01-19T08:41:45;32.13;;;13.05;;
21036;SDS011;10677;50.942;4.028;2023-01-19T08:44:22;25.70;;;12.63;;
21036;SDS011;10677;50.942;4.028;2023-01-19T08:46:51;28.48;;;13.82;;
21036;SDS011;10677;50.942;4.028;2023-01-19T08:49:19;25.05;;;11.82;;
21036;SDS011;10677;50.942;4.028;2023-01-19T08:51:47;26.95;;;12.23;;
21036;SDS011;10677;50.942;4.028;2023-01-19T08:54:15;24.67;;;11.63;;
21036;SDS011;10677;50.942;4.028;2023-01-19T08:56:45;26.33;;;11.55;;
21036;SDS011;10677;50.942;4.028;2023-01-19T08:59:11;30.23;;;13.60;;
21036;SDS011;10677;50.942;4.028;2023-01-19T09:01:42;27.45;;;12.15;;
21036;SDS011;10677;50.942;4.028;2023-01-19T09:04:18;34.20;;;12.25;;
21036;SDS011;10677;50.942;4.028;2023-01-19T09:06:47;28.48;;;14.10;;
21036;SDS011;10677;50.942;4.028;2023-01-19T09:09:23;31.88;;;16.85;;
21036;SDS011;10677;50.942;4.028;2023-01-19T09:11:49;32.28;;;15.38;;
21036;SDS011;10677;50.942;4.028;2023-01-19T09:14:15;33.22;;;16.10;;
21036;SDS011;10677;50.942;4.028;2023-01-19T09:16:47;32.60;;;16.88;;
21036;SDS011;10677;50.942;4.028;2023-01-19T09:19:31;34.47;;;17.42;;
21036;SDS011;10677;50.942;4.028;2023-01-19T09:22:03;38.83;;;18.58;;
21036;SDS011;10677;50.942;4.028;2023-01-19T09:27:55;41.10;;;19.45;;
21036;SDS011;10677;50.942;4.028;2023-01-19T09:30:27;55.05;;;22.65;;
21036;SDS011;10677;50.942;4.028;2023-01-19T09:33:00;44.72;;;22.00;;
21036;SDS011;10677;50.942;4.028;2023-01-19T09:35:30;47.45;;;22.10;;
21036;SDS011;10677;50.942;4.028;2023-01-19T09:37:59;48.03;;;20.67;;
21036;SDS011;10677;50.942;4.028;2023-01-19T09:40:26;43.08;;;20.25;;
21036;SDS011;10677;50.942;4.028;2023-01-19T09:51:10;42.75;;;19.52;;
21036;SDS011;10677;50.942;4.028;2023-01-19T09:56:37;45.50;;;21.08;;
21036;SDS011;10677;50.942;4.028;2023-01-19T09:59:25;40.00;;;19.80;;
21036;SDS011;10677;50.942;4.028;2023-01-19T10:10:15;49.53;;;19.95;;
21036;SDS011;10677;50.942;4.028;2023-01-19T10:13:15;52.92;;;20.45;;
21036;SDS011;10677;50.942;4.028;2023-01-19T10:16:02;53.70;;;22.45;;
21036;SDS011;10677;50.942;4.028;2023-01-19T10:18:58;55.85;;;21.52;;
21036;SDS011;10677;50.942;4.028;2023-01-19T10:21:40;48.00;;;20.05;;
21036;SDS011;10677;50.942;4.028;2023-01-19T10:24:24;59.33;;;21.83;;
21036;SDS011;10677;50.942;4.028;2023-01-19T10:26:57;51.80;;;20.23;;
21036;SDS011;10677;50.942;4.028;2023-01-19T10:29:24;48.40;;;19.75;;
21036;SDS011;10677;50.942;4.028;2023-01-19T10:32:02;46.25;;;20.27;;
21036;SDS011;10677;50.942;4.028;2023-01-19T10:34:36;52.88;;;22.45;;
21036;SDS011;10677;50.942;4.028;2023-01-19T10:39:40;55.17;;;19.45;;
21036;SDS011;10677;50.942;4.028;2023-01-19T10:42:07;53.95;;;19.63;;
21036;SDS011;10677;50.942;4.028;2023-01-19T10:44:39;46.45;;;19.95;;
21036;SDS011;10677;50.942;4.028;2023-01-19T10:47:10;47.65;;;20.08;;
21036;SDS011;10677;50.942;4.028;2023-01-19T10:49:50;44.42;;;20.25;;
21036;SDS011;10677;50.942;4.028;2023-01-19T10:54:45;45.78;;;19.95;;
21036;SDS011;10677;50.942;4.028;2023-01-19T10:57:12;48.08;;;21.38;;
21036;SDS011;10677;50.942;4.028;2023-01-19T10:59:56;41.25;;;18.77;;
21036;SDS011;10677;50.942;4.028;2023-01-19T11:02:25;41.45;;;19.08;;
21036;SDS011;10677;50.942;4.028;2023-01-19T11:05:00;41.85;;;18.95;;
21036;SDS011;10677;50.942;4.028;2023-01-19T11:07:47;39.78;;;17.73;;
21036;SDS011;10677;50.942;4.028;2023-01-19T11:18:07;35.88;;;17.92;;
21036;SDS011;10677;50.942;4.028;2023-01-19T11:23:18;41.17;;;16.65;;
21036;SDS011;10677;50.942;4.028;2023-01-19T11:26:00;38.55;;;17.38;;
21036;SDS011;10677;50.942;4.028;2023-01-19T11:28:36;39.17;;;17.38;;
21036;SDS011;10677;50.942;4.028;2023-01-19T11:33:49;37.47;;;16.75;;
21036;SDS011;10677;50.942;4.028;2023-01-19T11:38:56;42.63;;;16.85;;
21036;SDS011;10677;50.942;4.028;2023-01-19T11:41:27;38.95;;;18.40;;
21036;SDS011;10677;50.942;4.028;2023-01-19T11:44:08;34.22;;;15.52;;
21036;SDS011;10677;50.942;4.028;2023-01-19T11:46:40;33.50;;;14.80;;
21036;SDS011;10677;50.942;4.028;2023-01-19T11:49:14;30.13;;;14.75;;
21036;SDS011;10677;50.942;4.028;2023-01-19T11:51:57;33.78;;;15.50;;
21036;SDS011;10677;50.942;4.028;2023-01-19T11:54:34;32.00;;;14.85;;
21036;SDS011;10677;50.942;4.028;2023-01-19T12:07:31;34.42;;;16.60;;
21036;SDS011;10677;50.942;4.028;2023-01-19T12:10:15;32.45;;;15.63;;
21036;SDS011;10677;50.942;4.028;2023-01-19T12:12:52;30.10;;;15.38;;
21036;SDS011;10677;50.942;4.028;2023-01-19T12:15:25;30.48;;;15.40;;
21036;SDS011;10677;50.942;4.028;2023-01-19T12:18:00;33.72;;;15.70;;
21036;SDS011;10677;50.942;4.028;2023-01-19T12:25:58;33.38;;;15.80;;
21036;SDS011;10677;50.942;4.028;2023-01-19T12:28:40;37.70;;;16.08;;
21036;SDS011;10677;50.942;4.028;2023-01-19T12:31:12;33.08;;;15.93;;
21036;SDS011;10677;50.942;4.028;2023-01-19T12:33:41;36.20;;;15.65;;
21036;SDS011;10677;50.942;4.028;2023-01-19T12:36:08;32.22;;;15.07;;
21036;SDS011;10677;50.942;4.028;2023-01-19T12:38:55;32.70;;;14.95;;
21036;SDS011;10677;50.942;4.028;2023-01-19T12:41:29;36.13;;;16.13;;
21036;SDS011;10677;50.942;4.028;2023-01-19T12:49:06;33.92;;;15.07;;
21036;SDS011;10677;50.942;4.028;2023-01-19T12:51:34;31.70;;;15.57;;
21036;SDS011;10677;50.942;4.028;2023-01-19T12:54:04;34.22;;;16.95;;
21036;SDS011;10677;50.942;4.028;2023-01-19T12:56:33;33.33;;;15.90;;
21036;SDS011;10677;50.942;4.028;2023-01-19T12:59:02;36.10;;;15.68;;
21036;SDS011;10677;50.942;4.028;2023-01-19T13:01:30;36.38;;;16.50;;
21036;SDS011;10677;50.942;4.028;2023-01-19T13:04:05;33.72;;;15.43;;
21036;SDS011;10677;50.942;4.028;2023-01-19T13:09:33;35.78;;;16.45;;
21036;SDS011;10677;50.942;4.028;2023-01-19T13:12:23;30.15;;;15.30;;
21036;SDS011;10677;50.942;4.028;2023-01-19T13:15:24;32.25;;;15.27;;
21036;SDS011;10677;50.942;4.028;2023-01-19T13:17:57;32.25;;;15.70;;
21036;SDS011;10677;50.942;4.028;2023-01-19T13:20:26;31.98;;;14.57;;
21036;SDS011;10677;50.942;4.028;2023-01-19T13:26:17;31.05;;;13.63;;
21036;SDS011;10677;50.942;4.028;2023-01-19T13:28:49;30.83;;;13.98;;
21036;SDS011;10677;50.942;4.028;2023-01-19T13:31:19;32.00;;;14.68;;
21036;SDS011;10677;50.942;4.028;2023-01-19T13:33:49;30.10;;;14.48;;
21036;SDS011;10677;50.942;4.028;2023-01-19T13:36:34;29.23;;;14.75;;
21036;SDS011;10677;50.942;4.028;2023-01-19T13:39:02;28.27;;;14.55;;
21036;SDS011;10677;50.942;4.028;2023-01-19T13:41:33;27.38;;;14.50;;
21036;SDS011;10677;50.942;4.028;2023-01-19T13:44:03;25.20;;;13.95;;
21036;SDS011;10677;50.942;4.028;2023-01-19T13:46:34;34.78;;;16.48;;
21036;SDS011;10677;50.942;4.028;2023-01-19T13:49:16;31.45;;;15.70;;
21036;SDS011;10677;50.942;4.028;2023-01-19T13:52:06;32.78;;;15.90;;
21036;SDS011;10677;50.942;4.028;2023-01-19T13:54:52;29.20;;;14.63;;
21036;SDS011;10677;50.942;4.028;2023-01-19T13:57:21;27.95;;;14.43;;
21036;SDS011;10677;50.942;4.028;2023-01-19T14:00:34;32.47;;;14.52;;
21036;SDS011;10677;50.942;4.028;2023-01-19T14:02:49;26.95;;;14.63;;
21036;SDS011;10677;50.942;4.028;2023-01-19T14:05:34;31.75;;;14.57;;
21036;SDS011;10677;50.942;4.028;2023-01-19T14:11:21;29.92;;;15.32;;
21036;SDS011;10677;50.942;4.028;2023-01-19T14:15:58;28.88;;;14.70;;
21036;SDS011;10677;50.942;4.028;2023-01-19T14:18:36;24.10;;;14.23;;
21036;SDS011;10677;50.942;4.028;2023-01-19T14:21:06;26.05;;;13.50;;
21036;SDS011;10677;50.942;4.028;2023-01-19T14:23:41;29.33;;;14.50;;
21036;SDS011;10677;50.942;4.028;2023-01-19T14:32:13;36.55;;;16.85;;
21036;SDS011;10677;50.942;4.028;2023-01-19T14:34:52;30.40;;;16.63;;
21036;SDS011;10677;50.942;4.028;2023-01-19T14:37:48;30.55;;;15.02;;
21036;SDS011;10677;50.942;4.028;2023-01-19T14:40:16;34.65;;;18.40;;
21036;SDS011;10677;50.942;4.028;2023-01-19T14:42:54;30.75;;;14.48;;
21036;SDS011;10677;50.942;4.028;2023-01-19T14:45:34;27.67;;;13.75;;
21036;SDS011;10677;50.942;4.028;2023-01-19T14:48:02;34.10;;;14.75;;
21036;SDS011;10677;50.942;4.028;2023-01-19T14:53:00;30.85;;;13.93;;
21036;SDS011;10677;50.942;4.028;2023-01-19T14:58:12;23.27;;;13.00;;
21036;SDS011;10677;50.942;4.028;2023-01-19T15:00:40;34.03;;;14.30;;
21036;SDS011;10677;50.942;4.028;2023-01-19T15:03:07;38.97;;;14.10;;
21036;SDS011;10677;50.942;4.028;2023-01-19T15:08:54;27.60;;;12.77;;
21036;SDS011;10677;50.942;4.028;2023-01-19T15:11:30;24.70;;;12.55;;
21036;SDS011;10677;50.942;4.028;2023-01-19T15:13:59;25.40;;;12.43;;
21036;SDS011;10677;50.942;4.028;2023-01-19T15:16:27;27.75;;;13.50;;
21036;SDS011;10677;50.942;4.028;2023-01-19T15:18:56;36.22;;;16.70;;
21036;SDS011;10677;50.942;4.028;2023-01-19T15:21:22;31.42;;;15.30;;
21036;SDS011;10677;50.942;4.028;2023-01-19T15:23:50;27.48;;;12.23;;
21036;SDS011;10677;50.942;4.028;2023-01-19T15:26:17;26.50;;;12.45;;
21036;SDS011;10677;50.942;4.028;2023-01-19T15:28:44;24.88;;;11.98;;
21036;SDS011;10677;50.942;4.028;2023-01-19T15:31:31;27.95;;;13.30;;
21036;SDS011;10677;50.942;4.028;2023-01-19T15:33:56;28.48;;;13.80;;
21036;SDS011;10677;50.942;4.028;2023-01-19T15:36:22;31.20;;;13.68;;
21036;SDS011;10677;50.942;4.028;2023-01-19T15:38:49;27.38;;;12.88;;
21036;SDS011;10677;50.942;4.028;2023-01-19T15:41:17;30.70;;;14.52;;
21036;SDS011;10677;50.942;4.028;2023-01-19T15:43:50;28.83;;;13.68;;
21036;SDS011;10677;50.942;4.028;2023-01-19T15:46:20;25.40;;;13.45;;
21036;SDS011;10677;50.942;4.028;2023-01-19T15:48:50;26.15;;;13.13;;
21036;SDS011;10677;50.942;4.028;2023-01-19T15:51:18;31.38;;;14.98;;
21036;SDS011;10677;50.942;4.028;2023-01-19T15:53:45;29.30;;;14.05;;
21036;SDS011;10677;50.942;4.028;2023-01-19T15:56:15;26.42;;;14.50;;
21036;SDS011;10677;50.942;4.028;2023-01-19T15:58:42;39.17;;;16.13;;
21036;SDS011;10677;50.942;4.028;2023-01-19T16:01:10;32.90;;;14.40;;
21036;SDS011;10677;50.942;4.028;2023-01-19T16:03:58;28.00;;;14.35;;
21036;SDS011;10677;50.942;4.028;2023-01-19T16:06:29;33.38;;;14.75;;
21036;SDS011;10677;50.942;4.028;2023-01-19T16:11:56;31.30;;;14.95;;
21036;SDS011;10677;50.942;4.028;2023-01-19T16:14:21;32.90;;;14.43;;
21036;SDS011;10677;50.942;4.028;2023-01-19T16:16:48;32.28;;;16.50;;
21036;SDS011;10677;50.942;4.028;2023-01-19T16:19:14;35.63;;;16.67;;
21036;SDS011;10677;50.942;4.028;2023-01-19T16:21:40;33.53;;;16.55;;
21036;SDS011;10677;50.942;4.028;2023-01-19T16:24:07;32.58;;;15.63;;
21036;SDS011;10677;50.942;4.028;2023-01-19T16:26:33;37.92;;;15.93;;
21036;SDS011;10677;50.942;4.028;2023-01-19T16:29:01;30.83;;;14.65;;
21036;SDS011;10677;50.942;4.028;2023-01-19T16:31:35;30.70;;;16.40;;
21036;SDS011;10677;50.942;4.028;2023-01-19T16:34:02;35.38;;;16.30;;
21036;SDS011;10677;50.942;4.028;2023-01-19T16:36:32;36.15;;;16.42;;
21036;SDS011;10677;50.942;4.028;2023-01-19T16:39:01;39.78;;;16.75;;
21036;SDS011;10677;50.942;4.028;2023-01-19T16:41:28;34.03;;;15.27;;
21036;SDS011;10677;50.942;4.028;2023-01-19T16:43:54;34.90;;;15.43;;
21036;SDS011;10677;50.942;4.028;2023-01-19T16:46:25;33.35;;;16.75;;
21036;SDS011;10677;50.942;4.028;2023-01-19T16:48:58;29.65;;;15.82;;
21036;SDS011;10677;50.942;4.028;2023-01-19T16:51:34;35.92;;;15.88;;
21036;SDS011;10677;50.942;4.028;2023-01-19T16:54:00;40.05;;;17.65;;
21036;SDS011;10677;50.942;4.028;2023-01-19T16:56:26;36.35;;;16.42;;
21036;SDS011;10677;50.942;4.028;2023-01-19T16:58:55;33.80;;;18.05;;
21036;SDS011;10677;50.942;4.028;2023-01-19T17:01:24;36.63;;;16.85;;
21036;SDS011;10677;50.942;4.028;2023-01-19T17:03:52;33.22;;;15.70;;
21036;SDS011;10677;50.942;4.028;2023-01-19T17:06:20;37.22;;;17.67;;
21036;SDS011;10677;50.942;4.028;2023-01-19T17:08:47;36.30;;;17.50;;
21036;SDS011;10677;50.942;4.028;2023-01-19T17:11:16;34.83;;;16.42;;
21036;SDS011;10677;50.942;4.028;2023-01-19T17:13:54;40.22;;;17.55;;
21036;SDS011;10677;50.942;4.028;2023-01-19T17:16:23;32.60;;;16.45;;
21036;SDS011;10677;50.942;4.028;2023-01-19T17:18:49;38.92;;;17.38;;